createdAt,value
2023-02-03T00:02:35.069Z,2.10
2023-02-03T00:17:56.427Z,2.30
2023-02-03T00:33:17.593Z,1.33
2023-02-03T00:48:39.152Z,2.13
2023-02-03T01:04:00.384Z,1.77
2023-02-03T01:19:21.864Z,1.60
2023-02-03T01:34:43.247Z,1.33
2023-02-03T01:50:07.850Z,1.67
2023-02-03T02:05:58.229Z,1.67
2023-02-03T02:21:34.257Z,1.57
2023-02-03T02:37:00.304Z,1.47
2023-02-03T02:52:22.706Z,1.93
2023-02-03T03:07:46.458Z,2.13
2023-02-03T03:23:08.678Z,1.90
2023-02-03T03:38:33.430Z,1.90
2023-02-03T03:53:54.754Z,1.77
2023-02-03T04:09:16.256Z,2.00
2023-02-03T04:24:37.688Z,1.47
2023-02-03T04:39:59.416Z,1.53
2023-02-03T04:55:20.834Z,1.30
2023-02-03T05:10:42.088Z,2.30
2023-02-03T05:26:03.512Z,2.80
2023-02-03T05:41:43.687Z,3.00
2023-02-03T05:57:05.016Z,5.27
2023-02-03T06:12:28.284Z,5.13
2023-02-03T06:27:50.900Z,54.37
2023-02-03T06:43:12.212Z,26.40
2023-02-03T06:58:33.748Z,22.20
2023-02-03T07:13:55.198Z,37.10
2023-02-03T07:29:16.841Z,13.30
2023-02-03T07:44:38.171Z,11.93
2023-02-03T07:59:59.543Z,11.77
2023-02-03T08:15:21.106Z,19.37
2023-02-03T08:30:42.444Z,11.50
2023-02-03T08:46:06.211Z,18.20
2023-02-03T09:01:27.471Z,18.93
2023-02-03T09:16:48.864Z,15.07
2023-02-03T09:32:11.556Z,11.63
2023-02-03T09:47:35.299Z,15.53
2023-02-03T10:02:57.570Z,46.50
2023-02-03T10:18:21.177Z,33.73
2023-02-03T10:33:42.492Z,28.50
2023-02-03T10:49:04.167Z,24.53
2023-02-03T11:04:29.619Z,37.93
2023-02-03T11:20:14.406Z,92.73
2023-02-03T11:35:38.274Z,19.93
2023-02-03T11:50:59.568Z,38.10
2023-02-03T12:06:30.543Z,11.37
2023-02-03T12:22:01.986Z,16.17
2023-02-03T12:37:28.368Z,10.60
2023-02-03T12:52:52.926Z,13.70
2023-02-03T13:08:16.312Z,12.57
2023-02-03T13:23:37.352Z,12.63
2023-02-03T13:39:05.034Z,11.00
2023-02-03T13:54:39.749Z,37.10
2023-02-03T14:10:13.861Z,20.67
2023-02-03T14:25:35.440Z,21.97
2023-02-03T14:41:00.919Z,17.57
2023-02-03T14:56:25.329Z,21.00
2023-02-03T15:11:48.165Z,24.00
2023-02-03T15:27:20.157Z,27.10
2023-02-03T15:43:00.358Z,38.10
2023-02-03T15:58:23.749Z,59.43
2023-02-03T16:13:45.896Z,57.17
2023-02-03T16:29:29.963Z,29.27
2023-02-03T16:45:10.208Z,48.10
2023-02-03T17:00:31.637Z,32.67
2023-02-03T17:15:53.139Z,15.90
2023-02-03T17:31:15.455Z,13.37
2023-02-03T18:02:15.594Z,25.47
2023-02-03T18:17:36.872Z,19.00
2023-02-03T18:33:00.138Z,15.30
2023-02-03T18:48:21.308Z,9.23
2023-02-03T19:03:42.752Z,16.40
2023-02-03T19:19:04.218Z,9.43
2023-02-03T19:34:27.575Z,5.43
2023-02-03T19:49:50.669Z,4.67
2023-02-03T20:05:12.110Z,5.40
2023-02-03T20:20:33.898Z,18.57
2023-02-03T20:35:55.288Z,9.90
2023-02-03T20:51:17.666Z,4.60
2023-02-03T21:06:39.813Z,5.17
2023-02-03T21:22:03.456Z,7.90
2023-02-03T21:37:24.725Z,6.23
2023-02-03T21:52:46.024Z,3.37
2023-02-03T22:08:18.573Z,6.63
2023-02-03T22:23:40.098Z,5.47
2023-02-03T22:39:01.661Z,4.00
2023-02-03T22:54:22.984Z,6.33
2023-02-03T23:09:44.030Z,4.90
2023-02-03T23:25:05.842Z,4.00
2023-02-03T23:40:27.291Z,3.77
2023-02-03T23:55:48.560Z,1.93
